Sarita, Texas
Current Conditions -  °F | °C
As of 12:46 PM on Sunday 21 Dec 2014 (Local Time) from KNQI Reporting Station
Overcast Overcast  
Wind Chill: 58°   Ceiling: 700
Heat Index: 58°   Visibility: 9mi
Dew Point: 56°   Wind: 7mph
Humidity: 93%   Direction: 50°NE
Pressure: 30.03"   Gusts: NA
Location:  27.22°N, 97.79°W
Report Text: KNQI 211846Z AUTO 05006KT 9SM OVC007 14/13 A3003 RMK AO2 T01440133
Loading
Personal Weather Stations






























Interactive Weather Map New forecast layout! Learn more

10-Day Weather Forecast

Advertisements
Track Severe Weather on mobile